Time;durP1;ratioP1;P1;durP2;ratioP2;P2;SDS_P1;SDS_P2;PMS_P1;PMS_P2;Temp;Humidity;BMP_temperature;BMP_pressure;BME280_temperature;BME280_humidity;BME280_pressure;Samples;Min_cycle;Max_cycle;Signal;HPM_P1;HPM_P2
2022/09/06 00:00:06;;;;;;;6.55;3.60;;;;;;;19.61;65.24;95758.78;5005982;28;20210;-78
2022/09/06 00:02:32;;;;;;;4.85;3.65;;;;;;;19.69;64.95;95750.69;5022327;28;20217;-79
2022/09/06 00:04:58;;;;;;;6.53;3.50;;;;;;;19.66;65.12;95745.84;5014226;28;20211;-78
2022/09/06 00:07:23;;;;;;;8.30;4.15;;;;;;;19.68;65.05;95749.06;4999265;28;20208;-80
2022/09/06 00:09:49;;;;;;;4.47;3.53;;;;;;;19.64;65.19;95747.84;4994283;28;20184;-79
2022/09/06 00:12:14;;;;;;;5.93;4.07;;;;;;;19.60;65.11;95749.25;4988560;28;20324;-80
2022/09/06 00:14:39;;;;;;;4.05;3.53;;;;;;;19.57;65.33;95747.84;5008750;28;20207;-80
2022/09/06 00:17:05;;;;;;;4.78;3.72;;;;;;;19.56;64.76;95740.09;4991538;28;20261;-80
2022/09/06 00:19:30;;;;;;;3.97;3.60;;;;;;;19.61;64.69;95737.69;5000343;28;20187;-80
2022/09/06 00:21:55;;;;;;;4.93;4.13;;;;;;;19.60;64.89;95743.97;4996592;28;20246;-80
2022/09/06 00:24:21;;;;;;;4.82;3.70;;;;;;;19.56;65.04;95734.84;4989632;28;20199;-80
2022/09/06 00:26:46;;;;;;;4.35;3.78;;;;;;;19.47;64.91;95732.38;5003842;28;20247;-80
2022/09/06 00:29:11;;;;;;;3.55;3.25;;;;;;;19.51;65.12;95738.88;4970031;28;20209;-80
2022/09/06 00:31:36;;;;;;;4.15;3.58;;;;;;;19.45;64.95;95733.59;5003680;28;20211;-80
2022/09/06 00:34:02;;;;;;;5.72;3.92;;;;;;;19.37;65.41;95753.00;4981669;28;20187;-81
2022/09/06 00:36:27;;;;;;;6.47;3.92;;;;;;;19.36;65.05;95748.75;4985463;28;20251;-80
2022/09/06 00:38:52;;;;;;;4.95;3.83;;;;;;;19.33;65.10;95745.69;4991051;28;20187;-79
2022/09/06 00:41:18;;;;;;;4.57;4.13;;;;;;;19.30;65.01;95748.72;5003240;28;20191;-78
2022/09/06 00:43:44;;;;;;;5.07;3.17;;;;;;;19.36;64.92;95726.88;4989169;28;20709;-79
2022/09/06 00:46:14;;;;;;;5.00;3.67;;;;;;;19.36;65.30;95732.97;4991313;28;20211;-78
2022/09/06 00:48:40;;;;;;;3.85;3.55;;;;;;;19.39;65.53;95729.13;4979638;28;20175;-78
2022/09/06 00:51:10;;;;;;;5.10;3.70;;;;;;;19.37;65.22;95726.69;4975989;28;20664;-78
2022/09/06 00:53:35;;;;;;;5.95;4.00;;;;;;;19.39;65.29;95732.56;4988839;28;20183;-78
2022/09/06 00:56:01;;;;;;;4.07;3.60;;;;;;;19.33;65.54;95738.59;4986152;28;20175;-79
2022/09/06 00:58:26;;;;;;;3.78;3.45;;;;;;;19.35;65.63;95744.50;4985572;28;20194;-78
2022/09/06 01:00:52;;;;;;;5.00;3.80;;;;;;;19.32;65.61;95734.34;4981083;28;20215;-79
2022/09/06 01:03:18;;;;;;;5.03;3.80;;;;;;;19.34;65.43;95742.03;4984067;28;20257;-78
2022/09/06 01:05:52;;;;;;;4.85;3.95;;;;;;;19.37;65.40;95739.84;4981089;28;20192;-80
2022/09/06 01:08:29;;;;;;;4.63;3.67;;;;;;;19.42;65.46;95736.59;4970827;28;20179;-79
2022/09/06 01:11:09;;;;;;;5.50;4.20;;;;;;;19.42;65.54;95737.41;4986705;28;20187;-79
2022/09/06 01:13:59;;;;;;;5.07;3.30;;;;;;;19.43;65.44;95739.03;5004653;28;20183;-78
2022/09/06 01:17:21;;;;;;;4.13;3.58;;;;;;;19.34;65.13;95748.13;4978618;28;20199;-79
2022/09/06 01:20:20;;;;;;;4.20;3.55;;;;;;;19.37;65.44;95749.56;4934138;29;20245;-79
2022/09/06 01:23:16;;;;;;;5.50;4.32;;;;;;;19.37;65.36;95754.84;4916632;29;20294;-79
2022/09/06 01:25:47;;;;;;;6.07;4.05;;;;;;;19.35;65.35;95757.69;4916966;29;20201;-79
2022/09/06 01:28:34;;;;;;;4.57;3.40;;;;;;;19.31;65.50;95768.78;4933758;29;20190;-78
2022/09/06 01:31:01;;;;;;;6.38;4.40;;;;;;;19.27;65.79;95764.94;4933409;29;20594;-79
2022/09/06 01:34:04;;;;;;;4.90;3.88;;;;;;;19.35;65.51;95780.56;4901800;29;20181;-78
2022/09/06 01:36:41;;;;;;;3.53;3.28;;;;;;;19.34;65.49;95782.34;4874570;29;20223;-79
2022/09/06 01:39:10;;;;;;;6.32;4.13;;;;;;;19.33;65.92;95835.22;4875363;29;20347;-78
2022/09/06 01:41:35;;;;;;;8.02;4.15;;;;;;;19.31;65.90;95880.19;4836109;29;20238;-77
2022/09/06 01:44:01;;;;;;;4.72;4.00;;;;;;;19.28;66.06;95877.94;4863804;29;20588;-78
2022/09/06 01:46:34;;;;;;;7.00;3.88;;;;;;;19.20;66.57;95883.34;4869861;29;20253;-78
2022/09/06 01:49:22;;;;;;;5.70;4.10;;;;;;;19.14;66.48;95879.66;4874373;29;20196;-80
2022/09/06 01:52:08;;;;;;;5.53;3.70;;;;;;;19.10;67.14;95872.38;4923484;29;20199;-78
2022/09/06 01:55:06;;;;;;;5.25;3.90;;;;;;;19.08;68.03;95874.34;4925812;29;20186;-78
2022/09/06 01:57:45;;;;;;;6.20;3.92;;;;;;;19.03;70.46;95860.97;4907264;29;20721;-78
2022/09/06 02:00:13;;;;;;;5.93;3.70;;;;;;;18.93;72.96;95848.97;4899915;29;20201;-79
2022/09/06 02:02:49;;;;;;;7.88;3.65;;;;;;;18.81;74.90;95847.84;4913755;29;20261;-79
2022/09/06 02:05:30;;;;;;;7.25;3.97;;;;;;;18.80;77.15;95867.28;4909340;29;20209;-79
2022/09/06 02:08:00;;;;;;;10.05;5.03;;;;;;;18.66;79.08;95876.88;4907874;29;20205;-79
2022/09/06 02:10:45;;;;;;;7.55;4.35;;;;;;;18.52;81.67;95863.78;4923583;29;20194;-80
2022/09/06 02:13:12;;;;;;;5.82;4.47;;;;;;;18.39;84.39;95836.38;4995606;28;20672;-80
2022/09/06 02:15:42;;;;;;;10.52;5.60;;;;;;;18.20;87.93;95847.53;4981087;28;20192;-80
2022/09/06 02:18:11;;;;;;;10.38;4.80;;;;;;;18.03;89.58;95844.31;4976901;28;20211;-79
2022/09/06 02:20:40;;;;;;;7.60;5.45;;;;;;;18.11;90.04;95828.44;4980853;28;20184;-80
2022/09/06 02:23:07;;;;;;;7.50;4.80;;;;;;;18.01;91.06;95820.03;4976440;28;20202;-80
2022/09/06 02:25:39;;;;;;;7.30;4.63;;;;;;;17.99;91.52;95815.97;4982692;28;20234;-79
2022/09/06 02:28:06;;;;;;;8.45;5.18;;;;;;;18.00;91.81;95822.84;4964609;28;20199;-79
2022/09/06 02:30:34;;;;;;;9.65;4.82;;;;;;;17.93;92.81;95820.13;4978386;28;20669;-79
2022/09/06 02:33:03;;;;;;;7.65;4.72;;;;;;;17.97;92.42;95803.00;4998699;28;20179;-78
2022/09/06 02:35:28;;;;;;;7.70;4.80;;;;;;;18.03;91.63;95794.38;5012413;28;20183;-78
2022/09/06 02:37:55;;;;;;;13.27;5.22;;;;;;;18.01;92.19;95790.31;5011563;28;20238;-78
2022/09/06 02:40:20;;;;;;;5.57;4.82;;;;;;;17.92;93.06;95786.97;5001276;28;20363;-78
2022/09/06 02:42:45;;;;;;;9.60;5.50;;;;;;;17.90;93.65;95790.81;5009970;28;20199;-80
2022/09/06 02:45:11;;;;;;;5.70;4.57;;;;;;;17.86;93.84;95800.88;4984065;28;20195;-80
2022/09/06 02:47:36;;;;;;;5.15;4.65;;;;;;;17.69;94.35;95794.22;4976128;28;20559;-79
2022/09/06 02:50:02;;;;;;;7.68;5.35;;;;;;;17.65;95.71;95793.75;4988412;28;20242;-80
2022/09/06 02:52:27;;;;;;;5.82;5.15;;;;;;;17.67;95.80;95793.56;4979786;28;20566;-78
2022/09/06 02:54:52;;;;;;;9.52;4.82;;;;;;;17.74;94.69;95797.91;4993992;28;20279;-79
2022/09/06 02:57:18;;;;;;;6.35;4.60;;;;;;;17.67;95.43;95791.78;4986921;28;20218;-80
2022/09/06 02:59:45;;;;;;;7.57;4.72;;;;;;;17.74;95.45;95789.22;4995909;28;20278;-79
2022/09/06 03:02:10;;;;;;;6.53;4.97;;;;;;;17.83;95.54;95791.53;4991527;28;20180;-80
2022/09/06 03:04:35;;;;;;;8.95;4.97;;;;;;;17.76;95.59;95787.25;4986462;28;20199;-80
2022/09/06 03:07:01;;;;;;;6.38;4.78;;;;;;;17.73;95.52;95791.03;5004996;28;20618;-80
2022/09/06 03:09:26;;;;;;;6.88;4.75;;;;;;;17.70;95.37;95791.41;4997935;28;20191;-80
2022/09/06 03:11:51;;;;;;;5.57;5.00;;;;;;;17.67;95.62;95786.50;4986632;28;20547;-80
2022/09/06 03:14:18;;;;;;;6.22;4.68;;;;;;;17.63;96.61;95787.88;4971331;28;20664;-80
2022/09/06 03:16:43;;;;;;;6.53;5.18;;;;;;;17.68;97.27;95789.97;4978447;28;20208;-79
2022/09/06 03:19:08;;;;;;;8.45;4.85;;;;;;;17.71;96.65;95792.22;4969015;28;20191;-80
2022/09/06 03:21:34;;;;;;;9.38;5.10;;;;;;;17.69;96.83;95797.66;4981695;28;20187;-79
2022/09/06 03:23:59;;;;;;;7.35;5.45;;;;;;;17.72;96.96;95792.03;4972887;28;20599;-79
2022/09/06 03:26:24;;;;;;;9.07;5.15;;;;;;;17.72;97.37;95789.41;4987467;28;20216;-79
2022/09/06 03:28:50;;;;;;;9.90;5.50;;;;;;;17.67;98.03;95788.31;4988389;28;20581;-79
2022/09/06 03:31:15;;;;;;;6.10;5.50;;;;;;;17.69;97.84;95789.75;4983619;28;20187;-80
2022/09/06 03:33:40;;;;;;;5.72;4.53;;;;;;;17.76;97.53;95782.81;4991697;28;20180;-79
2022/09/06 03:36:06;;;;;;;5.43;4.93;;;;;;;17.62;98.62;95773.13;4975306;28;20216;-80
2022/09/06 03:38:31;;;;;;;6.05;4.53;;;;;;;17.58;97.68;95785.00;4979584;28;20195;-80
2022/09/06 03:40:57;;;;;;;9.32;5.60;;;;;;;17.59;97.61;95785.81;4987667;28;20191;-80
2022/09/06 03:43:23;;;;;;;6.05;5.47;;;;;;;17.65;97.29;95780.63;4982863;28;20218;-79
2022/09/06 03:45:51;;;;;;;5.32;4.82;;;;;;;17.83;96.16;95775.78;4982059;28;20665;-79
2022/09/06 03:48:19;;;;;;;5.90;4.95;;;;;;;17.78;95.85;95787.88;4977642;28;20210;-79
2022/09/06 03:50:45;;;;;;;7.90;5.10;;;;;;;17.71;96.73;95787.78;4978908;28;20187;-79
2022/09/06 03:53:11;;;;;;;5.57;5.07;;;;;;;17.71;97.05;95793.03;4990461;28;20675;-79
2022/09/06 03:55:37;;;;;;;6.88;5.03;;;;;;;17.72;97.35;95797.28;4977863;28;20270;-79
2022/09/06 03:58:02;;;;;;;8.77;5.32;;;;;;;17.69;97.87;95787.13;4995771;28;20282;-79
2022/09/06 04:00:27;;;;;;;6.18;4.93;;;;;;;17.76;96.95;95784.63;4972912;28;20535;-80
2022/09/06 04:02:53;;;;;;;5.57;4.85;;;;;;;17.73;97.84;95785.78;4971430;28;20203;-79
2022/09/06 04:05:18;;;;;;;6.80;5.22;;;;;;;17.72;98.20;95786.78;5004718;28;20667;-78
2022/09/06 04:07:43;;;;;;;5.97;5.43;;;;;;;17.75;98.64;95788.22;4987141;28;20261;-79
2022/09/06 04:10:09;;;;;;;5.38;4.90;;;;;;;17.72;98.98;95789.41;4976757;28;20187;-81
2022/09/06 04:12:34;;;;;;;5.60;5.10;;;;;;;17.79;97.63;95787.69;4997890;28;20233;-80
2022/09/06 04:14:59;;;;;;;7.82;5.03;;;;;;;17.67;98.69;95783.88;4970380;28;20190;-79
2022/09/06 04:17:25;;;;;;;6.30;4.57;;;;;;;17.61;98.71;95786.44;4990026;28;20212;-81
2022/09/06 04:19:50;;;;;;;8.75;5.00;;;;;;;17.52;98.75;95780.47;4972775;28;20237;-79
2022/09/06 04:22:15;;;;;;;6.60;5.05;;;;;;;17.50;98.79;95785.09;4974024;28;20183;-80
2022/09/06 04:24:41;;;;;;;5.30;4.90;;;;;;;17.55;98.36;95787.97;4967952;28;20207;-79
2022/09/06 04:27:06;;;;;;;5.85;5.15;;;;;;;17.54;98.16;95786.34;4987838;28;20211;-79
2022/09/06 04:29:31;;;;;;;5.50;5.00;;;;;;;17.45;98.58;95788.28;4967349;28;20500;-80
2022/09/06 04:31:57;;;;;;;5.95;4.78;;;;;;;17.42;97.04;95783.41;4988733;28;20716;-80
2022/09/06 04:34:22;;;;;;;5.18;4.68;;;;;;;17.36;96.00;95786.75;4994987;28;20179;-80
2022/09/06 04:36:47;;;;;;;5.38;4.88;;;;;;;17.43;96.04;95778.97;5006123;28;20293;-80
2022/09/06 04:39:13;;;;;;;5.47;4.93;;;;;;;17.37;96.52;95779.69;4969195;28;20223;-80
2022/09/06 04:41:38;;;;;;;7.47;5.40;;;;;;;17.38;95.78;95779.50;4968330;28;20184;-79
2022/09/06 04:44:03;;;;;;;6.75;4.88;;;;;;;17.33;97.01;95788.94;4979731;28;20190;-80
2022/09/06 04:46:29;;;;;;;7.25;5.20;;;;;;;17.27;97.36;95782.59;4992769;28;20261;-80
2022/09/06 04:48:55;;;;;;;5.65;4.82;;;;;;;17.22;97.63;95777.88;4992354;28;20199;-79
2022/09/06 04:51:22;;;;;;;7.65;5.18;;;;;;;17.23;96.52;95774.28;4980758;28;20175;-80
2022/09/06 04:53:47;;;;;;;7.38;5.47;;;;;;;17.17;96.67;95779.44;5010361;28;20198;-81
2022/09/06 04:56:16;;;;;;;9.15;4.47;;;;;;;17.23;96.38;95778.72;4994802;28;20289;-80
2022/09/06 04:58:42;;;;;;;4.70;4.28;;;;;;;17.16;95.34;95783.88;4968817;28;20184;-79
2022/09/06 05:01:07;;;;;;;5.13;4.43;;;;;;;17.17;95.23;95779.44;4983800;28;20184;-81
2022/09/06 05:03:33;;;;;;;8.10;4.88;;;;;;;17.21;94.41;95780.69;4970019;28;20241;-79
2022/09/06 05:06:12;;;;;;;8.95;5.35;;;;;;;17.24;94.28;95773.28;4985780;28;20191;-80
2022/09/06 05:08:39;;;;;;;6.40;4.18;;;;;;;17.40;93.03;95784.56;4981050;28;20180;-79
2022/09/06 05:11:06;;;;;;;5.72;5.13;;;;;;;17.38;92.21;95783.94;4991449;28;20187;-79
2022/09/06 05:13:32;;;;;;;6.40;4.78;;;;;;;17.47;91.22;95791.53;4984776;28;20187;-78
2022/09/06 05:16:01;;;;;;;5.22;4.15;;;;;;;17.42;91.80;95787.84;4978249;28;20183;-78
2022/09/06 05:18:27;;;;;;;5.80;4.45;;;;;;;17.31;92.36;95781.22;4987792;28;20219;-80
2022/09/06 05:20:52;;;;;;;5.65;4.28;;;;;;;17.45;91.31;95801.41;4991428;28;20278;-80
2022/09/06 05:23:19;;;;;;;5.00;4.25;;;;;;;17.32;92.17;95793.38;4984930;28;20191;-81
2022/09/06 05:25:44;;;;;;;5.00;4.60;;;;;;;17.55;90.78;95790.59;4992907;28;20671;-80
2022/09/06 05:28:09;;;;;;;4.93;4.13;;;;;;;17.51;91.04;95790.16;4983987;28;20190;-80
2022/09/06 05:30:35;;;;;;;4.47;4.07;;;;;;;17.53;90.96;95793.41;4986826;28;20241;-79
2022/09/06 05:33:00;;;;;;;5.28;4.70;;;;;;;17.51;91.17;95792.78;5006763;28;20179;-79
2022/09/06 05:35:25;;;;;;;4.88;4.45;;;;;;;17.63;90.52;95789.69;4991598;28;20179;-80
2022/09/06 05:37:51;;;;;;;5.35;4.70;;;;;;;17.76;89.83;95789.88;4990265;28;20297;-78
2022/09/06 05:40:16;;;;;;;5.88;4.35;;;;;;;17.85;88.86;95793.19;4988033;28;20177;-78
2022/09/06 05:42:41;;;;;;;7.63;5.28;;;;;;;17.90;88.25;95789.00;5006961;28;20199;-80
2022/09/06 05:45:08;;;;;;;5.72;5.22;;;;;;;17.95;87.85;95793.69;4970427;28;20208;-80
2022/09/06 05:47:34;;;;;;;7.50;5.50;;;;;;;18.00;87.11;95797.38;4991305;28;20290;-78
2022/09/06 05:50:00;;;;;;;6.30;5.50;;;;;;;18.11;86.26;95788.19;4992499;28;20574;-78
2022/09/06 05:52:25;;;;;;;5.95;5.35;;;;;;;18.06;85.79;95794.00;4978208;28;20184;-77
2022/09/06 05:54:51;;;;;;;8.50;5.15;;;;;;;17.89;86.38;95800.50;4971830;28;20222;-78
2022/09/06 05:57:16;;;;;;;5.25;4.75;;;;;;;18.10;84.80;95792.63;5001983;28;20277;-77
2022/09/06 05:59:41;;;;;;;5.38;4.88;;;;;;;18.10;84.20;95792.63;4975661;28;20666;-78
2022/09/06 06:02:07;;;;;;;5.35;4.85;;;;;;;18.02;84.82;95794.56;4990905;28;20275;-78
2022/09/06 06:04:32;;;;;;;7.00;5.55;;;;;;;18.16;84.01;95796.31;4993915;28;20207;-77
2022/09/06 06:06:57;;;;;;;5.68;5.18;;;;;;;18.21;82.80;95795.75;4976387;28;20204;-78
2022/09/06 06:09:23;;;;;;;7.78;5.50;;;;;;;18.16;83.56;95798.94;4985995;28;20255;-79
2022/09/06 06:11:48;;;;;;;5.68;5.13;;;;;;;18.28;82.32;95810.56;4994619;28;20205;-80
2022/09/06 06:14:16;;;;;;;5.32;4.80;;;;;;;18.34;82.07;95811.63;4971653;28;20241;-79
2022/09/06 06:16:41;;;;;;;6.00;5.05;;;;;;;18.09;83.10;95816.47;4990572;28;20213;-80
2022/09/06 06:19:07;;;;;;;5.43;4.95;;;;;;;18.40;81.48;95821.41;4974356;28;20195;-79
2022/09/06 06:21:33;;;;;;;7.65;5.15;;;;;;;18.19;81.92;95814.31;5004293;28;20541;-78
2022/09/06 06:24:00;;;;;;;6.32;5.35;;;;;;;18.44;82.30;95819.19;4979693;28;20695;-79
2022/09/06 06:26:28;;;;;;;6.45;4.88;;;;;;;18.59;81.45;95826.00;4977023;28;20633;-79
2022/09/06 06:28:54;;;;;;;5.78;4.82;;;;;;;18.72;80.11;95816.63;4968131;28;20328;-81
2022/09/06 06:31:21;;;;;;;6.40;5.20;;;;;;;18.61;81.26;95821.38;4989277;28;20750;-79
2022/09/06 06:33:46;;;;;;;5.60;4.70;;;;;;;18.72;79.96;95814.78;4975290;28;20267;-79
2022/09/06 06:36:14;;;;;;;5.13;4.63;;;;;;;18.80;78.72;95822.53;4977629;28;20203;-80
2022/09/06 06:38:41;;;;;;;5.45;4.95;;;;;;;18.89;79.26;95828.47;5003955;28;20194;-78
2022/09/06 06:41:09;;;;;;;7.25;5.10;;;;;;;18.68;79.21;95829.34;4982887;28;20804;-80
2022/09/06 06:43:37;;;;;;;6.25;5.13;;;;;;;18.83;78.97;95824.00;4984827;28;20331;-78
2022/09/06 06:46:13;;;;;;;7.40;4.82;;;;;;;18.92;79.08;95828.91;4979423;28;20180;-80
2022/09/06 06:48:40;;;;;;;6.13;4.88;;;;;;;19.12;78.55;95825.59;4981881;28;20190;-81
2022/09/06 06:51:09;;;;;;;7.50;5.20;;;;;;;19.28;77.78;95822.66;4987335;28;20576;-79
2022/09/06 06:53:35;;;;;;;4.85;4.38;;;;;;;19.36;77.37;95829.56;4973444;28;20187;-79
2022/09/06 06:56:00;;;;;;;10.35;5.15;;;;;;;19.39;77.43;95821.28;4973584;28;20640;-80
2022/09/06 06:58:26;;;;;;;5.35;4.65;;;;;;;19.59;77.12;95831.94;4993833;28;20707;-78
2022/09/06 07:00:51;;;;;;;6.28;4.72;;;;;;;19.55;77.48;95835.94;5007966;28;20202;-79
2022/09/06 07:03:17;;;;;;;5.82;4.25;;;;;;;19.61;75.04;95835.97;4986423;28;20711;-78
2022/09/06 07:05:43;;;;;;;7.18;4.72;;;;;;;19.71;74.75;95830.38;5001024;28;20186;-79
2022/09/06 07:08:09;;;;;;;5.43;4.70;;;;;;;20.08;74.40;95819.31;4979880;28;20188;-79
2022/09/06 07:10:35;;;;;;;5.05;4.47;;;;;;;20.20;74.03;95816.09;4998335;28;20191;-78
2022/09/06 07:13:00;;;;;;;4.35;3.90;;;;;;;20.38;72.58;95818.94;5010412;28;20202;-78
2022/09/06 07:15:25;;;;;;;7.03;4.60;;;;;;;20.35;72.92;95816.72;4991289;28;20192;-79
2022/09/06 07:17:54;;;;;;;4.80;4.40;;;;;;;20.49;72.22;95818.34;4993955;28;20211;-78
2022/09/06 07:20:19;;;;;;;6.22;4.63;;;;;;;20.52;72.12;95815.34;4987140;28;20690;-78
2022/09/06 07:22:44;;;;;;;5.40;4.53;;;;;;;20.52;72.70;95822.44;4995989;28;20199;-79
2022/09/06 07:25:11;;;;;;;4.93;4.40;;;;;;;20.60;70.98;95822.25;5002738;28;20191;-79
2022/09/06 07:27:37;;;;;;;6.22;4.63;;;;;;;20.87;71.11;95818.56;4991328;28;20211;-78
2022/09/06 07:30:03;;;;;;;6.88;4.78;;;;;;;21.01;71.18;95816.69;4993755;28;20195;-78
2022/09/06 07:32:29;;;;;;;5.78;4.72;;;;;;;21.15;70.84;95810.38;4997423;28;20215;-78
2022/09/06 07:34:55;;;;;;;5.38;4.72;;;;;;;21.34;70.08;95813.22;4989187;28;20263;-78
2022/09/06 07:37:20;;;;;;;6.05;4.45;;;;;;;21.32;69.28;95816.06;5000280;28;20223;-79
2022/09/06 07:39:45;;;;;;;5.00;4.32;;;;;;;21.37;68.75;95813.59;4997651;28;20211;-78
2022/09/06 07:42:11;;;;;;;7.22;4.40;;;;;;;21.35;67.38;95806.91;5009938;28;20176;-79
2022/09/06 07:44:36;;;;;;;5.22;4.80;;;;;;;21.44;68.36;95814.38;5014002;28;20222;-79
2022/09/06 07:47:05;;;;;;;8.68;4.70;;;;;;;21.45;67.25;95804.63;5026392;28;20274;-79
2022/09/06 07:49:31;;;;;;;4.90;3.85;;;;;;;21.69;67.90;95811.06;4981244;28;20194;-78
2022/09/06 07:51:56;;;;;;;4.88;4.43;;;;;;;21.67;67.87;95805.97;4991824;28;20258;-79
2022/09/06 07:54:21;;;;;;;5.10;4.60;;;;;;;21.85;68.57;95809.75;5007758;28;20324;-78
2022/09/06 07:56:47;;;;;;;6.38;4.68;;;;;;;21.87;67.77;95807.72;4997184;28;20203;-79
2022/09/06 07:59:12;;;;;;;5.00;4.60;;;;;;;21.99;67.14;95800.72;4993492;28;20820;-78
2022/09/06 08:01:39;;;;;;;5.55;4.90;;;;;;;21.87;67.40;95802.41;4995821;28;20194;-78
2022/09/06 08:04:07;;;;;;;5.55;4.68;;;;;;;22.18;67.32;95805.13;4978795;28;20207;-78
2022/09/06 08:06:34;;;;;;;5.40;4.65;;;;;;;22.37;66.72;95802.56;4992478;28;20203;-78
2022/09/06 08:09:00;;;;;;;6.80;4.93;;;;;;;22.50;65.80;95802.44;4990720;28;21238;-78
2022/09/06 08:11:30;;;;;;;5.50;4.88;;;;;;;22.60;66.42;95816.81;4977385;28;20655;-78
2022/09/06 08:13:57;;;;;;;7.90;4.35;;;;;;;22.69;65.65;95821.81;4972811;28;20275;-78
2022/09/06 08:16:24;;;;;;;5.93;4.65;;;;;;;22.67;64.73;95819.41;4988282;28;20275;-77
2022/09/06 08:18:51;;;;;;;6.07;5.15;;;;;;;22.95;63.88;95821.63;4990625;28;20266;-78
2022/09/06 08:21:16;;;;;;;5.80;5.07;;;;;;;23.18;63.26;95823.66;4978841;28;20742;-78
2022/09/06 08:23:47;;;;;;;6.82;5.05;;;;;;;23.39;62.14;95815.25;4973194;28;20299;-79
2022/09/06 08:26:13;;;;;;;7.45;4.60;;;;;;;23.53;62.41;95815.13;4969121;28;20215;-78
2022/09/06 08:28:38;;;;;;;5.97;4.57;;;;;;;23.85;61.16;95815.75;4988984;28;20283;-79
2022/09/06 08:31:05;;;;;;;11.63;4.40;;;;;;;23.89;61.62;95823.06;4971706;28;20274;-78
2022/09/06 08:33:31;;;;;;;8.38;4.75;;;;;;;23.96;60.02;95817.69;4989871;28;20179;-78
2022/09/06 08:35:57;;;;;;;4.53;4.13;;;;;;;24.52;58.21;95811.97;4962237;28;20238;-77
2022/09/06 08:38:22;;;;;;;8.77;4.72;;;;;;;24.58;58.58;95818.22;4977913;28;20192;-78
2022/09/06 08:40:47;;;;;;;5.70;4.38;;;;;;;24.70;58.73;95815.59;4991582;28;20183;-80
2022/09/06 08:43:21;;;;;;;7.38;4.25;;;;;;;24.71;58.77;95818.00;4977770;28;20199;-78
2022/09/06 08:45:54;;;;;;;5.30;4.53;;;;;;;24.83;57.19;95813.53;5003727;28;20211;-78
2022/09/06 08:48:20;;;;;;;7.65;4.57;;;;;;;24.96;57.05;95815.13;4990833;28;20188;-78
2022/09/06 08:51:00;;;;;;;5.15;4.28;;;;;;;24.92;56.63;95814.00;4978579;28;20613;-79
2022/09/06 08:53:25;;;;;;;6.65;4.22;;;;;;;24.83;56.39;95818.03;4987047;28;20230;-79
2022/09/06 08:56:02;;;;;;;15.70;5.07;;;;;;;24.47;57.84;95811.88;4974312;28;20187;-78
2022/09/06 08:59:11;;;;;;;8.85;4.43;;;;;;;24.59;58.09;95817.19;4995017;28;20670;-78
2022/09/06 09:02:13;;;;;;;7.35;4.07;;;;;;;24.80;58.77;95823.78;4988168;28;20262;-78
2022/09/06 09:04:43;;;;;;;5.32;3.88;;;;;;;24.91;58.19;95820.31;4991849;28;20203;-79
2022/09/06 09:07:28;;;;;;;8.43;4.38;;;;;;;25.08;57.19;95815.97;4976178;28;20214;-79
2022/09/06 09:09:54;;;;;;;5.88;4.45;;;;;;;25.15;57.10;95823.81;5003565;28;20202;-79
2022/09/06 09:12:22;;;;;;;6.82;4.43;;;;;;;24.56;56.64;95821.13;4985852;28;20191;-79
2022/09/06 09:14:51;;;;;;;6.90;4.30;;;;;;;24.67;56.25;95829.31;4984341;28;20207;-79
2022/09/06 09:17:24;;;;;;;6.75;4.70;;;;;;;24.92;55.98;95832.59;4983159;28;20207;-78
2022/09/06 09:19:49;;;;;;;5.95;4.30;;;;;;;25.13;54.52;95833.88;4987276;28;20179;-79
2022/09/06 09:22:17;;;;;;;10.52;4.40;;;;;;;25.01;54.76;95825.88;4986462;28;20194;-79
2022/09/06 09:24:43;;;;;;;7.75;4.03;;;;;;;24.83;55.36;95833.97;4981080;28;20199;-79
2022/09/06 09:27:10;;;;;;;15.05;4.65;;;;;;;24.82;56.59;95835.78;4998861;28;20733;-78
2022/09/06 09:29:56;;;;;;;20.17;5.10;;;;;;;24.95;58.10;95837.44;4991212;28;20179;-78
2022/09/06 09:32:28;;;;;;;7.40;4.20;;;;;;;24.86;59.30;95833.50;4989488;28;20195;-79
2022/09/06 09:34:55;;;;;;;7.13;3.75;;;;;;;24.30;58.40;95832.09;5006007;28;20306;-78
2022/09/06 09:37:22;;;;;;;6.65;4.20;;;;;;;24.41;58.17;95831.34;4984726;28;20203;-79
2022/09/06 09:39:49;;;;;;;7.60;4.15;;;;;;;24.50;58.81;95826.53;4988203;28;20183;-78
2022/09/06 09:42:29;;;;;;;10.10;4.13;;;;;;;24.32;58.00;95832.72;4991672;28;20194;-79
2022/09/06 09:44:55;;;;;;;8.63;4.28;;;;;;;24.28;59.46;95823.53;4972006;28;20200;-79
2022/09/06 09:47:27;;;;;;;6.72;3.92;;;;;;;24.35;60.42;95826.13;4977279;28;20206;-78
2022/09/06 09:49:54;;;;;;;8.48;3.78;;;;;;;24.48;59.99;95821.44;4981332;28;20558;-80
2022/09/06 09:52:32;;;;;;;7.72;3.75;;;;;;;24.55;57.73;95819.47;4979044;28;20466;-78
2022/09/06 09:55:00;;;;;;;8.98;4.40;;;;;;;24.57;58.33;95822.72;4987823;28;20237;-79
2022/09/06 09:57:29;;;;;;;7.18;3.83;;;;;;;24.54;56.56;95817.84;4995106;28;20207;-78
2022/09/06 09:59:57;;;;;;;6.13;4.32;;;;;;;24.69;57.84;95817.44;4994906;28;20191;-77
2022/09/06 10:02:34;;;;;;;8.15;4.28;;;;;;;24.82;59.09;95822.50;4988000;28;20219;-77
2022/09/06 10:05:15;;;;;;;7.00;3.92;;;;;;;24.89;57.48;95814.44;4992558;28;20210;-78
2022/09/06 10:07:52;;;;;;;7.35;4.20;;;;;;;24.87;59.18;95813.88;5003635;28;20230;-77
2022/09/06 10:10:25;;;;;;;6.90;4.28;;;;;;;25.01;56.49;95809.94;4986751;28;20191;-78
2022/09/06 10:13:12;;;;;;;11.05;3.55;;;;;;;25.10;56.31;95813.09;4990319;28;20648;-78
2022/09/06 10:15:39;;;;;;;5.78;3.60;;;;;;;25.45;57.12;95809.59;4978045;28;20188;-78
2022/09/06 10:18:05;;;;;;;6.13;4.05;;;;;;;25.38;56.82;95810.50;4979928;28;20242;-78
2022/09/06 10:20:44;;;;;;;4.78;3.90;;;;;;;25.62;56.77;95805.97;4984409;28;20191;-78
2022/09/06 10:23:45;;;;;;;6.13;3.92;;;;;;;25.78;56.39;95806.28;4992467;28;20254;-78
2022/09/06 10:26:19;;;;;;;7.32;4.38;;;;;;;25.73;57.39;95808.84;5000375;28;20222;-78
2022/09/06 10:28:44;;;;;;;5.10;4.38;;;;;;;25.58;57.53;95810.13;5005835;28;20187;-78
2022/09/06 10:31:38;;;;;;;12.90;4.97;;;;;;;25.49;57.79;95800.91;4979218;28;20218;-79
2022/09/06 10:34:24;;;;;;;9.10;4.18;;;;;;;25.75;56.46;95804.91;4983880;28;20549;-78
2022/09/06 10:36:53;;;;;;;4.93;4.40;;;;;;;25.66;57.00;95795.66;4971951;28;20694;-78
2022/09/06 10:39:42;;;;;;;5.60;4.13;;;;;;;25.78;55.71;95799.09;5005556;28;20202;-79
2022/09/06 10:42:19;;;;;;;8.43;4.35;;;;;;;25.81;56.08;95797.84;4977290;28;20662;-79
2022/09/06 10:45:18;;;;;;;6.90;3.72;;;;;;;25.69;56.33;95785.34;5004191;28;20215;-78
2022/09/06 10:48:07;;;;;;;6.13;3.60;;;;;;;25.65;54.37;95783.41;5004049;28;20210;-79
2022/09/06 10:50:55;;;;;;;8.52;4.18;;;;;;;25.74;55.33;95782.00;4977493;28;21873;-79
2022/09/06 10:53:20;;;;;;;6.30;4.00;;;;;;;25.97;52.33;95786.41;4990245;28;20215;-79
2022/09/06 10:55:49;;;;;;;7.13;3.57;;;;;;;25.73;54.51;95784.91;5000478;28;20592;-78
2022/09/06 10:58:23;;;;;;;9.35;4.25;;;;;;;25.89;53.53;95787.63;4991882;28;20441;-79
2022/09/06 11:00:50;;;;;;;5.65;3.72;;;;;;;25.94;54.21;95787.72;4970829;28;20423;-78
2022/09/06 11:03:26;;;;;;;7.60;3.83;;;;;;;25.64;54.89;95782.59;4981323;28;20199;-79
2022/09/06 11:05:56;;;;;;;7.95;3.80;;;;;;;25.79;54.48;95784.75;4971904;28;20281;-79
2022/09/06 11:08:32;;;;;;;8.18;4.35;;;;;;;25.70;55.04;95786.97;4996343;28;20188;-78
2022/09/06 11:11:02;;;;;;;7.40;4.03;;;;;;;25.78;54.54;95799.09;4974921;28;20186;-77
2022/09/06 11:13:27;;;;;;;7.43;4.07;;;;;;;25.96;54.70;95790.94;4989114;28;20275;-78
2022/09/06 11:16:07;;;;;;;6.68;3.75;;;;;;;26.11;54.84;95789.59;4967946;28;20203;-79
2022/09/06 11:18:53;;;;;;;7.57;3.70;;;;;;;26.11;53.99;95787.75;4996720;28;20186;-78
2022/09/06 11:21:29;;;;;;;7.75;3.50;;;;;;;25.79;54.87;95789.25;4989696;28;20664;-78
2022/09/06 11:24:09;;;;;;;8.02;3.53;;;;;;;25.65;55.66;95794.03;4988872;28;20218;-78
2022/09/06 11:26:57;;;;;;;5.25;3.85;;;;;;;25.33;55.02;95785.66;4986809;28;20359;-78
2022/09/06 11:29:25;;;;;;;7.18;3.50;;;;;;;25.50;54.75;95781.25;4980984;28;20290;-78
2022/09/06 11:32:01;;;;;;;7.85;3.75;;;;;;;25.52;55.36;95776.47;4986239;28;20548;-78
2022/09/06 11:34:30;;;;;;;8.77;3.08;;;;;;;25.45;55.75;95781.16;4979632;28;20266;-78
2022/09/06 11:36:57;;;;;;;4.90;3.28;;;;;;;25.67;55.26;95779.44;4990343;28;20206;-78
2022/09/06 11:39:37;;;;;;;10.80;4.93;;;;;;;25.50;55.14;95773.25;4991671;28;20179;-78
2022/09/06 11:42:07;;;;;;;7.78;3.92;;;;;;;25.52;54.19;95779.16;4978807;28;20282;-78
2022/09/06 11:44:48;;;;;;;8.55;3.70;;;;;;;25.33;55.20;95772.38;4981705;28;20207;-79